sensor_id;sensor_type;location;lat;lon;timestamp;P1;durP1;ratioP1;P2;durP2;ratioP2
16101;SDS011;56411;52.964;10.540;2023-03-23T00:01:50;6.63;;;3.00;;
16101;SDS011;56411;52.964;10.540;2023-03-23T00:04:17;8.80;;;3.40;;
16101;SDS011;56411;52.964;10.540;2023-03-23T00:06:44;8.77;;;3.53;;
16101;SDS011;56411;52.964;10.540;2023-03-23T00:09:12;10.73;;;3.37;;
16101;SDS011;56411;52.964;10.540;2023-03-23T00:11:40;11.38;;;3.83;;
16101;SDS011;56411;52.964;10.540;2023-03-23T00:14:10;9.18;;;3.80;;
16101;SDS011;56411;52.964;10.540;2023-03-23T00:16:39;11.13;;;4.20;;
16101;SDS011;56411;52.964;10.540;2023-03-23T00:19:08;9.50;;;3.80;;
16101;SDS011;56411;52.964;10.540;2023-03-23T00:21:38;10.30;;;4.13;;
16101;SDS011;56411;52.964;10.540;2023-03-23T00:24:07;11.23;;;4.10;;
16101;SDS011;56411;52.964;10.540;2023-03-23T00:26:36;11.90;;;4.60;;
16101;SDS011;56411;52.964;10.540;2023-03-23T00:29:05;10.63;;;4.00;;
16101;SDS011;56411;52.964;10.540;2023-03-23T00:31:34;11.67;;;4.57;;
16101;SDS011;56411;52.964;10.540;2023-03-23T00:34:03;10.33;;;4.33;;
16101;SDS011;56411;52.964;10.540;2023-03-23T00:36:31;13.50;;;4.63;;
16101;SDS011;56411;52.964;10.540;2023-03-23T00:39:00;11.03;;;4.50;;
16101;SDS011;56411;52.964;10.540;2023-03-23T00:41:27;14.37;;;4.80;;
16101;SDS011;56411;52.964;10.540;2023-03-23T00:43:56;10.97;;;4.50;;
16101;SDS011;56411;52.964;10.540;2023-03-23T00:46:25;13.93;;;5.53;;
16101;SDS011;56411;52.964;10.540;2023-03-23T00:48:54;11.93;;;4.90;;
16101;SDS011;56411;52.964;10.540;2023-03-23T00:51:22;12.00;;;4.93;;
16101;SDS011;56411;52.964;10.540;2023-03-23T00:53:49;10.50;;;4.63;;
16101;SDS011;56411;52.964;10.540;2023-03-23T00:56:17;10.73;;;4.60;;
16101;SDS011;56411;52.964;10.540;2023-03-23T00:58:44;11.23;;;4.80;;
16101;SDS011;56411;52.964;10.540;2023-03-23T01:01:11;12.63;;;4.63;;
16101;SDS011;56411;52.964;10.540;2023-03-23T01:03:39;9.90;;;4.70;;
16101;SDS011;56411;52.964;10.540;2023-03-23T01:06:08;11.13;;;4.97;;
16101;SDS011;56411;52.964;10.540;2023-03-23T01:08:38;15.40;;;5.53;;
16101;SDS011;56411;52.964;10.540;2023-03-23T01:11:10;16.63;;;4.93;;
16101;SDS011;56411;52.964;10.540;2023-03-23T01:13:38;13.00;;;4.97;;
16101;SDS011;56411;52.964;10.540;2023-03-23T01:16:06;11.17;;;4.60;;
16101;SDS011;56411;52.964;10.540;2023-03-23T01:18:34;11.50;;;5.00;;
16101;SDS011;56411;52.964;10.540;2023-03-23T01:21:03;10.70;;;5.20;;
16101;SDS011;56411;52.964;10.540;2023-03-23T01:23:33;11.27;;;5.03;;
16101;SDS011;56411;52.964;10.540;2023-03-23T01:26:04;10.83;;;4.87;;
16101;SDS011;56411;52.964;10.540;2023-03-23T01:28:32;12.40;;;4.83;;
16101;SDS011;56411;52.964;10.540;2023-03-23T01:31:00;12.47;;;5.00;;
16101;SDS011;56411;52.964;10.540;2023-03-23T01:33:28;13.57;;;5.43;;
16101;SDS011;56411;52.964;10.540;2023-03-23T01:35:55;12.23;;;5.00;;
16101;SDS011;56411;52.964;10.540;2023-03-23T01:38:22;11.23;;;4.43;;
16101;SDS011;56411;52.964;10.540;2023-03-23T01:40:53;11.23;;;4.50;;
16101;SDS011;56411;52.964;10.540;2023-03-23T01:43:21;11.80;;;4.27;;
16101;SDS011;56411;52.964;10.540;2023-03-23T01:45:48;10.97;;;4.73;;
16101;SDS011;56411;52.964;10.540;2023-03-23T01:48:16;11.07;;;4.90;;
16101;SDS011;56411;52.964;10.540;2023-03-23T01:50:47;11.13;;;4.50;;
16101;SDS011;56411;52.964;10.540;2023-03-23T01:53:19;10.30;;;4.50;;
16101;SDS011;56411;52.964;10.540;2023-03-23T01:55:47;13.70;;;5.10;;
16101;SDS011;56411;52.964;10.540;2023-03-23T01:58:20;11.77;;;4.90;;
16101;SDS011;56411;52.964;10.540;2023-03-23T02:00:52;11.47;;;4.97;;
16101;SDS011;56411;52.964;10.540;2023-03-23T02:03:20;12.77;;;5.30;;
16101;SDS011;56411;52.964;10.540;2023-03-23T02:05:48;11.97;;;5.07;;
16101;SDS011;56411;52.964;10.540;2023-03-23T02:08:17;13.50;;;5.77;;
16101;SDS011;56411;52.964;10.540;2023-03-23T02:10:44;12.77;;;6.13;;
16101;SDS011;56411;52.964;10.540;2023-03-23T02:13:12;11.13;;;5.90;;
16101;SDS011;56411;52.964;10.540;2023-03-23T02:15:43;13.80;;;6.30;;
16101;SDS011;56411;52.964;10.540;2023-03-23T02:18:27;14.47;;;6.70;;
16101;SDS011;56411;52.964;10.540;2023-03-23T02:21:16;14.13;;;7.00;;
16101;SDS011;56411;52.964;10.540;2023-03-23T02:27:01;13.00;;;7.03;;
16101;SDS011;56411;52.964;10.540;2023-03-23T02:29:40;15.50;;;7.43;;
16101;SDS011;56411;52.964;10.540;2023-03-23T02:32:36;14.23;;;7.20;;
16101;SDS011;56411;52.964;10.540;2023-03-23T02:35:21;15.50;;;7.53;;
16101;SDS011;56411;52.964;10.540;2023-03-23T02:37:55;16.87;;;8.13;;
16101;SDS011;56411;52.964;10.540;2023-03-23T02:40:27;15.73;;;8.00;;
16101;SDS011;56411;52.964;10.540;2023-03-23T02:42:58;17.00;;;7.77;;
16101;SDS011;56411;52.964;10.540;2023-03-23T02:45:27;15.87;;;8.00;;
16101;SDS011;56411;52.964;10.540;2023-03-23T02:47:57;14.30;;;8.13;;
16101;SDS011;56411;52.964;10.540;2023-03-23T02:50:28;15.60;;;8.00;;
16101;SDS011;56411;52.964;10.540;2023-03-23T02:52:58;19.23;;;8.37;;
16101;SDS011;56411;52.964;10.540;2023-03-23T02:55:26;14.63;;;8.10;;
16101;SDS011;56411;52.964;10.540;2023-03-23T02:57:55;15.87;;;9.13;;
16101;SDS011;56411;52.964;10.540;2023-03-23T03:00:23;19.33;;;9.10;;
16101;SDS011;56411;52.964;10.540;2023-03-23T03:02:50;16.27;;;8.73;;
16101;SDS011;56411;52.964;10.540;2023-03-23T03:05:26;15.60;;;9.10;;
16101;SDS011;56411;52.964;10.540;2023-03-23T03:08:06;16.43;;;8.63;;
16101;SDS011;56411;52.964;10.540;2023-03-23T03:10:42;15.57;;;9.07;;
16101;SDS011;56411;52.964;10.540;2023-03-23T03:13:19;15.60;;;8.73;;
16101;SDS011;56411;52.964;10.540;2023-03-23T03:15:57;14.83;;;8.90;;
16101;SDS011;56411;52.964;10.540;2023-03-23T03:18:34;16.63;;;9.40;;
16101;SDS011;56411;52.964;10.540;2023-03-23T03:21:10;17.90;;;9.20;;
16101;SDS011;56411;52.964;10.540;2023-03-23T03:23:40;17.07;;;9.07;;
16101;SDS011;56411;52.964;10.540;2023-03-23T03:26:11;18.47;;;8.73;;
16101;SDS011;56411;52.964;10.540;2023-03-23T03:28:42;17.73;;;9.40;;
16101;SDS011;56411;52.964;10.540;2023-03-23T03:31:13;15.47;;;8.70;;
16101;SDS011;56411;52.964;10.540;2023-03-23T03:33:43;15.07;;;9.33;;
16101;SDS011;56411;52.964;10.540;2023-03-23T03:36:15;15.80;;;9.33;;
16101;SDS011;56411;52.964;10.540;2023-03-23T03:38:45;16.23;;;9.00;;
16101;SDS011;56411;52.964;10.540;2023-03-23T03:41:14;15.00;;;8.63;;
16101;SDS011;56411;52.964;10.540;2023-03-23T03:43:42;19.17;;;9.00;;
16101;SDS011;56411;52.964;10.540;2023-03-23T03:46:09;16.43;;;8.07;;
16101;SDS011;56411;52.964;10.540;2023-03-23T03:48:36;16.30;;;8.83;;
16101;SDS011;56411;52.964;10.540;2023-03-23T03:51:04;15.77;;;8.90;;
16101;SDS011;56411;52.964;10.540;2023-03-23T03:53:32;15.70;;;8.97;;
16101;SDS011;56411;52.964;10.540;2023-03-23T03:55:59;14.37;;;8.13;;
16101;SDS011;56411;52.964;10.540;2023-03-23T03:58:26;15.10;;;8.10;;
16101;SDS011;56411;52.964;10.540;2023-03-23T04:00:57;13.80;;;8.00;;
16101;SDS011;56411;52.964;10.540;2023-03-23T04:03:24;15.67;;;8.07;;
16101;SDS011;56411;52.964;10.540;2023-03-23T04:05:52;15.53;;;7.90;;
16101;SDS011;56411;52.964;10.540;2023-03-23T04:08:21;14.40;;;8.00;;
16101;SDS011;56411;52.964;10.540;2023-03-23T04:10:50;14.77;;;7.80;;
16101;SDS011;56411;52.964;10.540;2023-03-23T04:13:17;15.47;;;7.80;;
16101;SDS011;56411;52.964;10.540;2023-03-23T04:15:45;14.47;;;7.97;;
16101;SDS011;56411;52.964;10.540;2023-03-23T04:18:13;14.03;;;7.70;;
16101;SDS011;56411;52.964;10.540;2023-03-23T04:20:42;14.57;;;7.83;;
16101;SDS011;56411;52.964;10.540;2023-03-23T04:23:12;14.87;;;7.50;;
16101;SDS011;56411;52.964;10.540;2023-03-23T04:25:44;13.43;;;7.53;;
16101;SDS011;56411;52.964;10.540;2023-03-23T04:28:14;13.70;;;7.80;;
16101;SDS011;56411;52.964;10.540;2023-03-23T04:30:43;16.20;;;7.70;;
16101;SDS011;56411;52.964;10.540;2023-03-23T04:33:11;14.10;;;7.47;;
16101;SDS011;56411;52.964;10.540;2023-03-23T04:35:39;15.07;;;7.93;;
16101;SDS011;56411;52.964;10.540;2023-03-23T04:38:07;14.30;;;7.33;;
16101;SDS011;56411;52.964;10.540;2023-03-23T04:40:35;14.50;;;7.90;;
16101;SDS011;56411;52.964;10.540;2023-03-23T04:43:03;15.00;;;7.63;;
16101;SDS011;56411;52.964;10.540;2023-03-23T04:45:33;14.27;;;7.00;;
16101;SDS011;56411;52.964;10.540;2023-03-23T04:48:02;14.70;;;7.73;;
16101;SDS011;56411;52.964;10.540;2023-03-23T04:50:32;14.73;;;6.93;;
16101;SDS011;56411;52.964;10.540;2023-03-23T04:53:00;13.93;;;7.53;;
16101;SDS011;56411;52.964;10.540;2023-03-23T04:55:29;16.40;;;7.57;;
16101;SDS011;56411;52.964;10.540;2023-03-23T04:58:01;15.43;;;6.93;;
16101;SDS011;56411;52.964;10.540;2023-03-23T05:00:28;12.33;;;6.53;;
16101;SDS011;56411;52.964;10.540;2023-03-23T05:02:57;16.00;;;7.20;;
16101;SDS011;56411;52.964;10.540;2023-03-23T05:05:26;14.87;;;7.10;;
16101;SDS011;56411;52.964;10.540;2023-03-23T05:08:05;11.40;;;6.10;;
16101;SDS011;56411;52.964;10.540;2023-03-23T05:10:32;13.57;;;6.53;;
16101;SDS011;56411;52.964;10.540;2023-03-23T05:12:59;13.03;;;6.57;;
16101;SDS011;56411;52.964;10.540;2023-03-23T05:15:26;12.70;;;6.20;;
16101;SDS011;56411;52.964;10.540;2023-03-23T05:17:53;12.50;;;5.30;;
16101;SDS011;56411;52.964;10.540;2023-03-23T05:20:22;10.10;;;4.90;;
16101;SDS011;56411;52.964;10.540;2023-03-23T05:22:50;12.37;;;5.60;;
16101;SDS011;56411;52.964;10.540;2023-03-23T05:25:17;11.03;;;5.40;;
16101;SDS011;56411;52.964;10.540;2023-03-23T05:27:45;11.20;;;5.10;;
16101;SDS011;56411;52.964;10.540;2023-03-23T05:30:18;13.10;;;5.53;;
16101;SDS011;56411;52.964;10.540;2023-03-23T05:32:46;12.70;;;5.40;;
16101;SDS011;56411;52.964;10.540;2023-03-23T05:35:15;11.47;;;4.83;;
16101;SDS011;56411;52.964;10.540;2023-03-23T05:37:44;12.00;;;4.93;;
16101;SDS011;56411;52.964;10.540;2023-03-23T05:40:12;11.03;;;5.20;;
16101;SDS011;56411;52.964;10.540;2023-03-23T05:42:40;10.47;;;5.07;;
16101;SDS011;56411;52.964;10.540;2023-03-23T05:45:08;11.00;;;5.23;;
16101;SDS011;56411;52.964;10.540;2023-03-23T05:47:37;11.53;;;5.37;;
16101;SDS011;56411;52.964;10.540;2023-03-23T05:50:06;10.53;;;4.77;;
16101;SDS011;56411;52.964;10.540;2023-03-23T05:52:35;12.27;;;5.27;;
16101;SDS011;56411;52.964;10.540;2023-03-23T05:55:06;11.27;;;4.70;;
16101;SDS011;56411;52.964;10.540;2023-03-23T05:57:34;11.53;;;4.90;;
16101;SDS011;56411;52.964;10.540;2023-03-23T06:00:02;10.03;;;4.60;;
16101;SDS011;56411;52.964;10.540;2023-03-23T06:02:36;11.10;;;4.70;;
16101;SDS011;56411;52.964;10.540;2023-03-23T06:05:04;10.67;;;5.00;;
16101;SDS011;56411;52.964;10.540;2023-03-23T06:07:32;10.33;;;4.50;;
16101;SDS011;56411;52.964;10.540;2023-03-23T06:09:59;9.60;;;4.60;;
16101;SDS011;56411;52.964;10.540;2023-03-23T06:12:28;10.27;;;4.37;;
16101;SDS011;56411;52.964;10.540;2023-03-23T06:14:56;9.13;;;4.43;;
16101;SDS011;56411;52.964;10.540;2023-03-23T06:17:23;9.07;;;4.40;;
16101;SDS011;56411;52.964;10.540;2023-03-23T06:19:51;7.97;;;3.93;;
16101;SDS011;56411;52.964;10.540;2023-03-23T06:22:18;8.87;;;4.23;;
16101;SDS011;56411;52.964;10.540;2023-03-23T06:24:45;9.67;;;4.20;;
16101;SDS011;56411;52.964;10.540;2023-03-23T06:27:14;9.87;;;3.90;;
16101;SDS011;56411;52.964;10.540;2023-03-23T06:29:43;9.03;;;3.90;;
16101;SDS011;56411;52.964;10.540;2023-03-23T06:32:11;10.53;;;3.90;;
16101;SDS011;56411;52.964;10.540;2023-03-23T06:34:40;8.27;;;3.80;;
16101;SDS011;56411;52.964;10.540;2023-03-23T06:37:08;9.87;;;4.23;;
16101;SDS011;56411;52.964;10.540;2023-03-23T06:39:35;9.50;;;3.70;;
16101;SDS011;56411;52.964;10.540;2023-03-23T06:42:03;7.47;;;3.30;;
16101;SDS011;56411;52.964;10.540;2023-03-23T06:44:30;8.40;;;3.60;;
16101;SDS011;56411;52.964;10.540;2023-03-23T06:46:59;9.30;;;3.50;;
16101;SDS011;56411;52.964;10.540;2023-03-23T06:49:27;9.23;;;3.70;;
16101;SDS011;56411;52.964;10.540;2023-03-23T06:51:54;7.60;;;3.20;;
16101;SDS011;56411;52.964;10.540;2023-03-23T06:54:21;6.73;;;3.23;;
16101;SDS011;56411;52.964;10.540;2023-03-23T06:56:49;6.53;;;3.10;;
16101;SDS011;56411;52.964;10.540;2023-03-23T06:59:16;7.10;;;3.13;;
16101;SDS011;56411;52.964;10.540;2023-03-23T07:01:44;8.33;;;3.30;;
16101;SDS011;56411;52.964;10.540;2023-03-23T07:04:15;9.17;;;3.30;;
16101;SDS011;56411;52.964;10.540;2023-03-23T07:06:42;7.33;;;3.27;;
16101;SDS011;56411;52.964;10.540;2023-03-23T07:09:09;7.18;;;3.03;;
16101;SDS011;56411;52.964;10.540;2023-03-23T07:11:37;8.10;;;3.10;;
16101;SDS011;56411;52.964;10.540;2023-03-23T07:14:04;7.97;;;3.37;;
16101;SDS011;56411;52.964;10.540;2023-03-23T07:16:31;6.80;;;3.00;;
16101;SDS011;56411;52.964;10.540;2023-03-23T07:18:59;6.00;;;3.10;;
16101;SDS011;56411;52.964;10.540;2023-03-23T07:21:28;6.70;;;3.00;;
16101;SDS011;56411;52.964;10.540;2023-03-23T07:23:55;5.20;;;2.70;;
16101;SDS011;56411;52.964;10.540;2023-03-23T07:26:22;7.43;;;3.20;;
16101;SDS011;56411;52.964;10.540;2023-03-23T07:28:49;6.55;;;3.00;;
16101;SDS011;56411;52.964;10.540;2023-03-23T07:31:17;6.72;;;3.00;;
16101;SDS011;56411;52.964;10.540;2023-03-23T07:33:44;5.20;;;2.70;;
16101;SDS011;56411;52.964;10.540;2023-03-23T07:36:11;5.97;;;2.70;;
16101;SDS011;56411;52.964;10.540;2023-03-23T07:38:40;6.18;;;2.63;;
16101;SDS011;56411;52.964;10.540;2023-03-23T07:41:08;6.37;;;2.80;;
16101;SDS011;56411;52.964;10.540;2023-03-23T07:43:36;6.93;;;2.83;;
16101;SDS011;56411;52.964;10.540;2023-03-23T07:46:03;5.97;;;2.57;;
16101;SDS011;56411;52.964;10.540;2023-03-23T07:48:31;6.20;;;2.77;;
16101;SDS011;56411;52.964;10.540;2023-03-23T07:50:58;5.07;;;2.70;;
16101;SDS011;56411;52.964;10.540;2023-03-23T07:53:25;5.82;;;2.70;;
16101;SDS011;56411;52.964;10.540;2023-03-23T07:55:54;6.55;;;2.95;;
16101;SDS011;56411;52.964;10.540;2023-03-23T07:58:21;5.72;;;2.55;;
16101;SDS011;56411;52.964;10.540;2023-03-23T08:00:48;7.13;;;2.60;;
16101;SDS011;56411;52.964;10.540;2023-03-23T08:03:15;6.17;;;2.77;;
16101;SDS011;56411;52.964;10.540;2023-03-23T08:05:43;4.07;;;2.22;;
16101;SDS011;56411;52.964;10.540;2023-03-23T08:08:10;5.00;;;2.70;;
16101;SDS011;56411;52.964;10.540;2023-03-23T08:10:37;4.87;;;2.53;;
16101;SDS011;56411;52.964;10.540;2023-03-23T08:13:06;4.13;;;2.40;;
16101;SDS011;56411;52.964;10.540;2023-03-23T08:15:33;4.80;;;2.50;;
16101;SDS011;56411;52.964;10.540;2023-03-23T08:18:02;4.27;;;2.30;;
16101;SDS011;56411;52.964;10.540;2023-03-23T08:20:30;5.57;;;2.50;;
16101;SDS011;56411;52.964;10.540;2023-03-23T08:22:58;5.05;;;2.40;;
16101;SDS011;56411;52.964;10.540;2023-03-23T08:25:27;5.43;;;2.90;;
16101;SDS011;56411;52.964;10.540;2023-03-23T08:27:56;6.00;;;2.55;;
16101;SDS011;56411;52.964;10.540;2023-03-23T08:30:25;7.38;;;2.70;;
16101;SDS011;56411;52.964;10.540;2023-03-23T08:32:54;4.20;;;2.47;;
16101;SDS011;56411;52.964;10.540;2023-03-23T08:35:21;5.90;;;3.00;;
16101;SDS011;56411;52.964;10.540;2023-03-23T08:37:54;5.30;;;2.65;;
16101;SDS011;56411;52.964;10.540;2023-03-23T08:40:23;4.85;;;2.60;;
16101;SDS011;56411;52.964;10.540;2023-03-23T08:42:52;5.47;;;2.43;;
16101;SDS011;56411;52.964;10.540;2023-03-23T08:45:20;5.15;;;2.42;;
16101;SDS011;56411;52.964;10.540;2023-03-23T08:47:50;4.53;;;2.55;;
16101;SDS011;56411;52.964;10.540;2023-03-23T08:50:21;4.22;;;2.50;;
16101;SDS011;56411;52.964;10.540;2023-03-23T08:52:50;6.32;;;3.00;;
16101;SDS011;56411;52.964;10.540;2023-03-23T08:55:18;5.88;;;2.65;;
16101;SDS011;56411;52.964;10.540;2023-03-23T08:57:46;5.72;;;2.80;;
16101;SDS011;56411;52.964;10.540;2023-03-23T09:00:14;6.13;;;2.72;;
16101;SDS011;56411;52.964;10.540;2023-03-23T09:02:43;6.55;;;2.67;;
16101;SDS011;56411;52.964;10.540;2023-03-23T09:05:13;5.07;;;2.72;;
16101;SDS011;56411;52.964;10.540;2023-03-23T09:07:42;4.80;;;2.95;;
16101;SDS011;56411;52.964;10.540;2023-03-23T09:10:11;7.43;;;2.80;;
16101;SDS011;56411;52.964;10.540;2023-03-23T09:12:39;4.88;;;2.50;;
16101;SDS011;56411;52.964;10.540;2023-03-23T09:15:08;9.05;;;3.00;;
16101;SDS011;56411;52.964;10.540;2023-03-23T09:17:37;5.30;;;2.83;;
16101;SDS011;56411;52.964;10.540;2023-03-23T09:20:07;7.95;;;2.95;;
16101;SDS011;56411;52.964;10.540;2023-03-23T09:22:39;6.40;;;2.97;;
16101;SDS011;56411;52.964;10.540;2023-03-23T09:25:08;6.22;;;2.75;;
16101;SDS011;56411;52.964;10.540;2023-03-23T09:27:36;5.90;;;2.90;;
16101;SDS011;56411;52.964;10.540;2023-03-23T09:30:05;7.80;;;3.17;;
16101;SDS011;56411;52.964;10.540;2023-03-23T09:32:33;7.05;;;2.72;;
16101;SDS011;56411;52.964;10.540;2023-03-23T09:35:01;7.78;;;3.00;;
16101;SDS011;56411;52.964;10.540;2023-03-23T09:37:31;11.73;;;3.10;;
16101;SDS011;56411;52.964;10.540;2023-03-23T09:40:02;7.05;;;2.67;;
16101;SDS011;56411;52.964;10.540;2023-03-23T09:42:34;5.63;;;2.17;;
16101;SDS011;56411;52.964;10.540;2023-03-23T09:45:09;7.43;;;2.33;;
16101;SDS011;56411;52.964;10.540;2023-03-23T09:47:44;7.40;;;2.40;;
16101;SDS011;56411;52.964;10.540;2023-03-23T09:50:24;9.60;;;2.30;;
16101;SDS011;56411;52.964;10.540;2023-03-23T09:52:58;9.67;;;2.93;;
16101;SDS011;56411;52.964;10.540;2023-03-23T09:55:29;10.47;;;2.80;;
16101;SDS011;56411;52.964;10.540;2023-03-23T09:57:57;11.50;;;3.00;;
16101;SDS011;56411;52.964;10.540;2023-03-23T10:00:30;10.60;;;2.67;;
16101;SDS011;56411;52.964;10.540;2023-03-23T10:03:02;7.57;;;2.33;;
16101;SDS011;56411;52.964;10.540;2023-03-23T10:05:34;13.93;;;2.97;;
16101;SDS011;56411;52.964;10.540;2023-03-23T10:08:05;11.97;;;3.17;;
16101;SDS011;56411;52.964;10.540;2023-03-23T10:10:42;8.93;;;2.40;;
16101;SDS011;56411;52.964;10.540;2023-03-23T10:13:20;13.60;;;2.70;;
16101;SDS011;56411;52.964;10.540;2023-03-23T10:15:55;10.37;;;2.87;;
16101;SDS011;56411;52.964;10.540;2023-03-23T10:18:25;9.73;;;2.80;;
16101;SDS011;56411;52.964;10.540;2023-03-23T10:20:57;13.13;;;3.07;;
16101;SDS011;56411;52.964;10.540;2023-03-23T10:23:37;13.33;;;3.20;;
16101;SDS011;56411;52.964;10.540;2023-03-23T10:26:23;10.37;;;2.87;;
16101;SDS011;56411;52.964;10.540;2023-03-23T10:28:57;9.37;;;2.80;;
16101;SDS011;56411;52.964;10.540;2023-03-23T10:31:29;11.07;;;2.80;;
16101;SDS011;56411;52.964;10.540;2023-03-23T10:34:02;8.53;;;3.00;;
16101;SDS011;56411;52.964;10.540;2023-03-23T10:36:35;10.57;;;2.67;;
16101;SDS011;56411;52.964;10.540;2023-03-23T10:39:05;11.00;;;3.13;;
16101;SDS011;56411;52.964;10.540;2023-03-23T10:41:39;12.40;;;3.20;;
16101;SDS011;56411;52.964;10.540;2023-03-23T10:44:09;8.97;;;3.13;;
16101;SDS011;56411;52.964;10.540;2023-03-23T10:46:43;10.97;;;3.43;;
16101;SDS011;56411;52.964;10.540;2023-03-23T10:49:16;12.23;;;3.40;;
16101;SDS011;56411;52.964;10.540;2023-03-23T10:51:49;13.20;;;3.70;;
16101;SDS011;56411;52.964;10.540;2023-03-23T10:54:31;14.90;;;3.90;;
16101;SDS011;56411;52.964;10.540;2023-03-23T10:57:13;14.50;;;3.07;;
16101;SDS011;56411;52.964;10.540;2023-03-23T10:59:49;8.73;;;2.90;;
16101;SDS011;56411;52.964;10.540;2023-03-23T11:02:17;10.27;;;2.80;;
16101;SDS011;56411;52.964;10.540;2023-03-23T11:04:47;11.90;;;3.43;;
16101;SDS011;56411;52.964;10.540;2023-03-23T11:07:25;11.33;;;3.10;;
16101;SDS011;56411;52.964;10.540;2023-03-23T11:09:55;9.40;;;2.60;;
16101;SDS011;56411;52.964;10.540;2023-03-23T11:12:25;9.37;;;2.70;;
16101;SDS011;56411;52.964;10.540;2023-03-23T11:15:02;9.93;;;2.93;;
16101;SDS011;56411;52.964;10.540;2023-03-23T11:17:31;6.43;;;2.63;;
16101;SDS011;56411;52.964;10.540;2023-03-23T11:19:58;14.73;;;3.37;;
16101;SDS011;56411;52.964;10.540;2023-03-23T11:22:36;9.57;;;3.07;;
16101;SDS011;56411;52.964;10.540;2023-03-23T11:25:03;12.97;;;3.00;;
16101;SDS011;56411;52.964;10.540;2023-03-23T11:27:33;9.77;;;3.10;;
16101;SDS011;56411;52.964;10.540;2023-03-23T11:30:07;12.13;;;3.33;;
16101;SDS011;56411;52.964;10.540;2023-03-23T11:32:36;11.43;;;3.23;;
16101;SDS011;56411;52.964;10.540;2023-03-23T11:35:04;11.60;;;3.40;;
16101;SDS011;56411;52.964;10.540;2023-03-23T11:37:35;9.87;;;2.93;;
16101;SDS011;56411;52.964;10.540;2023-03-23T11:40:14;10.70;;;3.10;;
16101;SDS011;56411;52.964;10.540;2023-03-23T11:42:46;12.17;;;4.40;;
16101;SDS011;56411;52.964;10.540;2023-03-23T11:45:17;13.10;;;3.80;;
16101;SDS011;56411;52.964;10.540;2023-03-23T11:47:51;13.80;;;3.23;;
16101;SDS011;56411;52.964;10.540;2023-03-23T11:50:28;7.67;;;2.93;;
16101;SDS011;56411;52.964;10.540;2023-03-23T11:53:02;9.40;;;2.80;;
16101;SDS011;56411;52.964;10.540;2023-03-23T11:55:50;9.90;;;2.77;;
16101;SDS011;56411;52.964;10.540;2023-03-23T11:58:23;10.90;;;3.00;;
16101;SDS011;56411;52.964;10.540;2023-03-23T12:00:54;7.83;;;2.80;;
16101;SDS011;56411;52.964;10.540;2023-03-23T12:03:22;15.13;;;3.33;;
16101;SDS011;56411;52.964;10.540;2023-03-23T12:06:06;10.20;;;2.87;;
16101;SDS011;56411;52.964;10.540;2023-03-23T12:08:38;9.63;;;3.20;;
16101;SDS011;56411;52.964;10.540;2023-03-23T12:11:20;9.00;;;3.73;;
16101;SDS011;56411;52.964;10.540;2023-03-23T12:13:56;8.73;;;3.03;;
16101;SDS011;56411;52.964;10.540;2023-03-23T12:16:39;8.63;;;3.03;;
16101;SDS011;56411;52.964;10.540;2023-03-23T12:19:15;9.23;;;3.43;;
16101;SDS011;56411;52.964;10.540;2023-03-23T12:21:50;9.50;;;3.30;;
16101;SDS011;56411;52.964;10.540;2023-03-23T12:24:28;12.47;;;4.40;;
16101;SDS011;56411;52.964;10.540;2023-03-23T12:27:05;11.97;;;3.83;;
16101;SDS011;56411;52.964;10.540;2023-03-23T12:29:45;9.93;;;3.10;;
16101;SDS011;56411;52.964;10.540;2023-03-23T12:32:26;7.93;;;2.87;;
16101;SDS011;56411;52.964;10.540;2023-03-23T12:35:25;9.57;;;3.43;;
16101;SDS011;56411;52.964;10.540;2023-03-23T12:38:20;9.40;;;3.00;;
16101;SDS011;56411;52.964;10.540;2023-03-23T12:43:51;9.23;;;3.30;;
16101;SDS011;56411;52.964;10.540;2023-03-23T12:49:12;12.02;;;3.72;;
16101;SDS011;56411;52.964;10.540;2023-03-23T12:51:45;11.47;;;3.73;;
16101;SDS011;56411;52.964;10.540;2023-03-23T12:54:26;8.97;;;3.43;;
16101;SDS011;56411;52.964;10.540;2023-03-23T12:57:00;8.90;;;3.70;;
16101;SDS011;56411;52.964;10.540;2023-03-23T12:59:56;13.23;;;3.87;;
16101;SDS011;56411;52.964;10.540;2023-03-23T13:02:32;11.53;;;4.00;;
16101;SDS011;56411;52.964;10.540;2023-03-23T13:05:03;9.80;;;3.53;;
16101;SDS011;56411;52.964;10.540;2023-03-23T13:07:37;11.63;;;3.83;;
16101;SDS011;56411;52.964;10.540;2023-03-23T13:10:12;11.73;;;4.40;;
16101;SDS011;56411;52.964;10.540;2023-03-23T13:12:46;10.17;;;3.70;;
16101;SDS011;56411;52.964;10.540;2023-03-23T13:15:18;30.30;;;17.67;;
16101;SDS011;56411;52.964;10.540;2023-03-23T13:17:54;24.67;;;14.87;;
16101;SDS011;56411;52.964;10.540;2023-03-23T13:20:38;18.93;;;11.70;;
16101;SDS011;56411;52.964;10.540;2023-03-23T13:23:15;13.60;;;8.10;;
16101;SDS011;56411;52.964;10.540;2023-03-23T13:25:50;12.97;;;6.77;;
16101;SDS011;56411;52.964;10.540;2023-03-23T13:28:22;7.53;;;3.70;;
16101;SDS011;56411;52.964;10.540;2023-03-23T13:30:58;11.07;;;4.03;;
16101;SDS011;56411;52.964;10.540;2023-03-23T13:33:32;7.77;;;3.30;;
16101;SDS011;56411;52.964;10.540;2023-03-23T13:36:03;9.57;;;4.00;;
16101;SDS011;56411;52.964;10.540;2023-03-23T13:38:34;10.77;;;4.60;;
16101;SDS011;56411;52.964;10.540;2023-03-23T13:41:09;11.03;;;5.20;;
16101;SDS011;56411;52.964;10.540;2023-03-23T13:43:39;11.07;;;4.93;;
16101;SDS011;56411;52.964;10.540;2023-03-23T13:46:09;10.10;;;4.50;;
16101;SDS011;56411;52.964;10.540;2023-03-23T13:48:44;10.88;;;4.55;;
16101;SDS011;56411;52.964;10.540;2023-03-23T13:51:23;10.00;;;3.50;;
16101;SDS011;56411;52.964;10.540;2023-03-23T13:54:05;9.13;;;4.20;;
16101;SDS011;56411;52.964;10.540;2023-03-23T13:56:40;9.63;;;3.87;;
16101;SDS011;56411;52.964;10.540;2023-03-23T13:59:13;9.60;;;4.07;;
16101;SDS011;56411;52.964;10.540;2023-03-23T14:01:41;11.47;;;3.70;;
16101;SDS011;56411;52.964;10.540;2023-03-23T14:04:12;18.23;;;7.43;;
16101;SDS011;56411;52.964;10.540;2023-03-23T14:06:43;16.15;;;8.30;;
16101;SDS011;56411;52.964;10.540;2023-03-23T14:09:13;20.23;;;11.30;;
16101;SDS011;56411;52.964;10.540;2023-03-23T14:11:47;29.83;;;19.93;;
16101;SDS011;56411;52.964;10.540;2023-03-23T14:14:20;10.47;;;4.70;;
16101;SDS011;56411;52.964;10.540;2023-03-23T14:16:51;7.00;;;2.72;;
16101;SDS011;56411;52.964;10.540;2023-03-23T14:19:21;9.10;;;3.03;;
16101;SDS011;56411;52.964;10.540;2023-03-23T14:21:52;6.93;;;2.30;;
16101;SDS011;56411;52.964;10.540;2023-03-23T14:24:21;5.20;;;2.30;;
16101;SDS011;56411;52.964;10.540;2023-03-23T14:26:50;9.13;;;2.75;;
16101;SDS011;56411;52.964;10.540;2023-03-23T14:29:19;5.43;;;2.10;;
16101;SDS011;56411;52.964;10.540;2023-03-23T14:31:52;5.53;;;2.50;;
16101;SDS011;56411;52.964;10.540;2023-03-23T14:34:24;7.25;;;2.40;;
16101;SDS011;56411;52.964;10.540;2023-03-23T14:36:54;6.78;;;2.13;;
16101;SDS011;56411;52.964;10.540;2023-03-23T14:39:23;5.97;;;1.98;;
16101;SDS011;56411;52.964;10.540;2023-03-23T14:41:53;3.97;;;1.95;;
16101;SDS011;56411;52.964;10.540;2023-03-23T14:44:23;4.78;;;1.90;;
16101;SDS011;56411;52.964;10.540;2023-03-23T14:46:52;4.43;;;1.60;;
16101;SDS011;56411;52.964;10.540;2023-03-23T14:49:35;5.85;;;2.88;;
16101;SDS011;56411;52.964;10.540;2023-03-23T14:52:08;3.08;;;1.83;;
16101;SDS011;56411;52.964;10.540;2023-03-23T14:54:36;5.32;;;2.58;;
16101;SDS011;56411;52.964;10.540;2023-03-23T14:57:10;4.28;;;2.00;;